sensor_id;sensor_type;location;lat;lon;timestamp;temperature;humidity
2977;DHT22;1498;51.500;7.440;2023-02-01T00:02:12;7.90;99.90
2977;DHT22;1498;51.500;7.440;2023-02-01T00:04:38;7.90;99.90
2977;DHT22;1498;51.500;7.440;2023-02-01T00:07:03;7.90;99.90
2977;DHT22;1498;51.500;7.440;2023-02-01T00:09:29;7.90;99.90
2977;DHT22;1498;51.500;7.440;2023-02-01T00:11:54;8.00;99.90
2977;DHT22;1498;51.500;7.440;2023-02-01T00:14:20;7.90;99.90
2977;DHT22;1498;51.500;7.440;2023-02-01T00:16:46;7.90;99.90
2977;DHT22;1498;51.500;7.440;2023-02-01T00:19:13;7.90;99.90
2977;DHT22;1498;51.500;7.440;2023-02-01T00:21:40;7.90;99.90
2977;DHT22;1498;51.500;7.440;2023-02-01T00:24:06;8.00;99.90
2977;DHT22;1498;51.500;7.440;2023-02-01T00:26:35;8.00;99.90
2977;DHT22;1498;51.500;7.440;2023-02-01T00:29:03;7.90;99.90
2977;DHT22;1498;51.500;7.440;2023-02-01T00:31:29;7.90;99.90
2977;DHT22;1498;51.500;7.440;2023-02-01T00:33:55;7.90;99.90
2977;DHT22;1498;51.500;7.440;2023-02-01T00:36:20;7.90;99.90
2977;DHT22;1498;51.500;7.440;2023-02-01T00:38:46;7.90;99.90
2977;DHT22;1498;51.500;7.440;2023-02-01T00:41:20;7.90;99.90
2977;DHT22;1498;51.500;7.440;2023-02-01T00:43:46;7.90;99.90
2977;DHT22;1498;51.500;7.440;2023-02-01T00:46:14;8.00;99.90
2977;DHT22;1498;51.500;7.440;2023-02-01T00:48:40;7.80;99.90
2977;DHT22;1498;51.500;7.440;2023-02-01T00:51:10;7.70;99.90
2977;DHT22;1498;51.500;7.440;2023-02-01T00:53:36;7.80;99.90
2977;DHT22;1498;51.500;7.440;2023-02-01T00:56:02;7.90;99.90
2977;DHT22;1498;51.500;7.440;2023-02-01T00:58:27;8.00;99.90
2977;DHT22;1498;51.500;7.440;2023-02-01T01:03:26;8.00;99.90
2977;DHT22;1498;51.500;7.440;2023-02-01T01:05:57;8.00;99.90
2977;DHT22;1498;51.500;7.440;2023-02-01T01:08:23;7.80;99.90
2977;DHT22;1498;51.500;7.440;2023-02-01T01:10:48;7.80;99.90
2977;DHT22;1498;51.500;7.440;2023-02-01T01:13:14;7.80;99.90
2977;DHT22;1498;51.500;7.440;2023-02-01T01:15:40;7.90;99.90
2977;DHT22;1498;51.500;7.440;2023-02-01T01:18:07;7.90;99.90
2977;DHT22;1498;51.500;7.440;2023-02-01T01:20:37;7.90;99.90
2977;DHT22;1498;51.500;7.440;2023-02-01T01:23:03;7.90;99.90
2977;DHT22;1498;51.500;7.440;2023-02-01T01:25:29;7.90;99.90
2977;DHT22;1498;51.500;7.440;2023-02-01T01:27:54;7.90;99.90
2977;DHT22;1498;51.500;7.440;2023-02-01T01:30:20;7.90;99.90
2977;DHT22;1498;51.500;7.440;2023-02-01T01:32:45;8.00;99.90
2977;DHT22;1498;51.500;7.440;2023-02-01T01:35:11;7.90;99.90
2977;DHT22;1498;51.500;7.440;2023-02-01T01:37:37;8.00;99.90
2977;DHT22;1498;51.500;7.440;2023-02-01T01:40:04;8.00;99.90
2977;DHT22;1498;51.500;7.440;2023-02-01T01:42:30;8.10;99.90
2977;DHT22;1498;51.500;7.440;2023-02-01T01:45:00;8.00;99.90
2977;DHT22;1498;51.500;7.440;2023-02-01T01:47:48;8.10;99.90
2977;DHT22;1498;51.500;7.440;2023-02-01T01:50:19;8.00;99.90
2977;DHT22;1498;51.500;7.440;2023-02-01T01:52:49;7.90;99.90
2977;DHT22;1498;51.500;7.440;2023-02-01T01:55:18;7.90;99.90
2977;DHT22;1498;51.500;7.440;2023-02-01T01:57:50;7.90;99.90
2977;DHT22;1498;51.500;7.440;2023-02-01T02:00:18;7.80;99.90
2977;DHT22;1498;51.500;7.440;2023-02-01T02:02:47;7.90;99.90
2977;DHT22;1498;51.500;7.440;2023-02-01T02:05:16;7.80;99.90
2977;DHT22;1498;51.500;7.440;2023-02-01T02:07:46;7.90;99.90
2977;DHT22;1498;51.500;7.440;2023-02-01T02:10:13;7.80;99.90
2977;DHT22;1498;51.500;7.440;2023-02-01T02:12:41;7.80;99.90
2977;DHT22;1498;51.500;7.440;2023-02-01T02:15:09;7.80;99.90
2977;DHT22;1498;51.500;7.440;2023-02-01T02:18:24;7.80;99.90
2977;DHT22;1498;51.500;7.440;2023-02-01T02:21:11;7.80;99.90
2977;DHT22;1498;51.500;7.440;2023-02-01T02:32:52;7.70;99.90
2977;DHT22;1498;51.500;7.440;2023-02-01T02:35:30;7.80;99.90
2977;DHT22;1498;51.500;7.440;2023-02-01T02:38:27;7.70;99.90
2977;DHT22;1498;51.500;7.440;2023-02-01T02:41:02;7.80;99.90
2977;DHT22;1498;51.500;7.440;2023-02-01T02:43:37;7.80;99.90
2977;DHT22;1498;51.500;7.440;2023-02-01T02:46:37;7.70;99.90
2977;DHT22;1498;51.500;7.440;2023-02-01T02:52:13;7.80;99.90
2977;DHT22;1498;51.500;7.440;2023-02-01T02:55:01;7.90;99.90
2977;DHT22;1498;51.500;7.440;2023-02-01T02:57:36;7.90;99.90
2977;DHT22;1498;51.500;7.440;2023-02-01T03:00:24;7.90;99.90
2977;DHT22;1498;51.500;7.440;2023-02-01T03:03:08;7.80;99.90
2977;DHT22;1498;51.500;7.440;2023-02-01T03:05:52;7.80;99.90
2977;DHT22;1498;51.500;7.440;2023-02-01T03:08:23;7.80;99.90
2977;DHT22;1498;51.500;7.440;2023-02-01T03:11:04;7.90;99.90
2977;DHT22;1498;51.500;7.440;2023-02-01T03:13:53;7.90;99.90
2977;DHT22;1498;51.500;7.440;2023-02-01T03:16:36;7.90;99.90
2977;DHT22;1498;51.500;7.440;2023-02-01T03:24:18;7.80;99.90
2977;DHT22;1498;51.500;7.440;2023-02-01T03:26:55;7.70;99.90
2977;DHT22;1498;51.500;7.440;2023-02-01T03:32:09;7.80;99.90
2977;DHT22;1498;51.500;7.440;2023-02-01T03:34:35;7.90;99.90
2977;DHT22;1498;51.500;7.440;2023-02-01T03:37:25;7.80;99.90
2977;DHT22;1498;51.500;7.440;2023-02-01T05:30:35;7.90;99.90
2977;DHT22;1498;51.500;7.440;2023-02-01T05:33:01;7.80;99.90
2977;DHT22;1498;51.500;7.440;2023-02-01T05:35:27;7.80;99.90
2977;DHT22;1498;51.500;7.440;2023-02-01T05:37:52;7.80;99.90
2977;DHT22;1498;51.500;7.440;2023-02-01T05:40:18;7.60;99.90
2977;DHT22;1498;51.500;7.440;2023-02-01T05:42:44;7.60;99.90
2977;DHT22;1498;51.500;7.440;2023-02-01T05:45:09;7.70;99.90
2977;DHT22;1498;51.500;7.440;2023-02-01T05:47:36;7.70;99.90
2977;DHT22;1498;51.500;7.440;2023-02-01T05:50:02;7.80;99.90
2977;DHT22;1498;51.500;7.440;2023-02-01T05:52:27;7.90;99.90
2977;DHT22;1498;51.500;7.440;2023-02-01T05:54:53;7.90;99.90
2977;DHT22;1498;51.500;7.440;2023-02-01T05:57:18;8.00;99.90
2977;DHT22;1498;51.500;7.440;2023-02-01T05:59:44;8.00;99.90
2977;DHT22;1498;51.500;7.440;2023-02-01T06:02:11;8.00;99.90
2977;DHT22;1498;51.500;7.440;2023-02-01T06:04:37;8.00;99.90
2977;DHT22;1498;51.500;7.440;2023-02-01T06:07:03;8.10;99.90
2977;DHT22;1498;51.500;7.440;2023-02-01T06:09:28;8.10;99.90
2977;DHT22;1498;51.500;7.440;2023-02-01T06:11:54;8.00;99.90
2977;DHT22;1498;51.500;7.440;2023-02-01T06:14:20;8.00;99.90
2977;DHT22;1498;51.500;7.440;2023-02-01T06:16:46;8.00;99.90
2977;DHT22;1498;51.500;7.440;2023-02-01T06:19:13;7.90;99.90
2977;DHT22;1498;51.500;7.440;2023-02-01T06:21:38;7.90;99.90
2977;DHT22;1498;51.500;7.440;2023-02-01T06:24:04;7.80;99.90
2977;DHT22;1498;51.500;7.440;2023-02-01T06:26:30;7.90;99.90
2977;DHT22;1498;51.500;7.440;2023-02-01T06:28:56;7.90;99.90
2977;DHT22;1498;51.500;7.440;2023-02-01T06:31:22;7.70;99.90
2977;DHT22;1498;51.500;7.440;2023-02-01T06:33:49;7.80;99.90
2977;DHT22;1498;51.500;7.440;2023-02-01T06:36:16;7.80;99.90
2977;DHT22;1498;51.500;7.440;2023-02-01T06:38:42;7.80;99.90
2977;DHT22;1498;51.500;7.440;2023-02-01T06:41:09;7.80;99.90
2977;DHT22;1498;51.500;7.440;2023-02-01T06:43:35;7.90;99.90
2977;DHT22;1498;51.500;7.440;2023-02-01T06:46:02;7.80;99.90
2977;DHT22;1498;51.500;7.440;2023-02-01T06:48:28;7.80;99.90
2977;DHT22;1498;51.500;7.440;2023-02-01T06:50:54;7.90;99.90
2977;DHT22;1498;51.500;7.440;2023-02-01T06:53:20;7.80;99.90
2977;DHT22;1498;51.500;7.440;2023-02-01T06:55:59;7.90;99.90
2977;DHT22;1498;51.500;7.440;2023-02-01T06:58:30;7.90;99.90
2977;DHT22;1498;51.500;7.440;2023-02-01T07:00:56;7.80;99.90
2977;DHT22;1498;51.500;7.440;2023-02-01T07:03:22;7.70;99.90
2977;DHT22;1498;51.500;7.440;2023-02-01T07:05:47;7.80;99.90
2977;DHT22;1498;51.500;7.440;2023-02-01T07:08:13;7.90;99.90
2977;DHT22;1498;51.500;7.440;2023-02-01T07:10:38;7.80;99.90
2977;DHT22;1498;51.500;7.440;2023-02-01T07:13:04;7.90;99.90
2977;DHT22;1498;51.500;7.440;2023-02-01T07:15:30;7.90;99.90
2977;DHT22;1498;51.500;7.440;2023-02-01T07:17:56;8.00;99.90
2977;DHT22;1498;51.500;7.440;2023-02-01T07:20:22;8.00;99.90
2977;DHT22;1498;51.500;7.440;2023-02-01T07:22:47;8.00;99.90
2977;DHT22;1498;51.500;7.440;2023-02-01T07:25:13;8.00;99.90
2977;DHT22;1498;51.500;7.440;2023-02-01T07:27:38;7.90;99.90
2977;DHT22;1498;51.500;7.440;2023-02-01T07:30:05;7.90;99.90
2977;DHT22;1498;51.500;7.440;2023-02-01T07:32:31;7.90;99.90
2977;DHT22;1498;51.500;7.440;2023-02-01T07:34:57;8.00;99.90
2977;DHT22;1498;51.500;7.440;2023-02-01T07:37:23;7.90;99.90
2977;DHT22;1498;51.500;7.440;2023-02-01T07:39:50;7.80;99.90
2977;DHT22;1498;51.500;7.440;2023-02-01T07:42:16;7.80;99.90
2977;DHT22;1498;51.500;7.440;2023-02-01T07:44:41;7.80;99.90
2977;DHT22;1498;51.500;7.440;2023-02-01T07:47:07;7.90;99.90
2977;DHT22;1498;51.500;7.440;2023-02-01T07:49:32;8.00;99.90
2977;DHT22;1498;51.500;7.440;2023-02-01T07:51:58;8.00;99.90
2977;DHT22;1498;51.500;7.440;2023-02-01T07:54:23;8.00;99.90
2977;DHT22;1498;51.500;7.440;2023-02-01T07:56:49;8.20;99.90
2977;DHT22;1498;51.500;7.440;2023-02-01T07:59:14;8.20;99.90
2977;DHT22;1498;51.500;7.440;2023-02-01T08:01:41;8.20;99.90
2977;DHT22;1498;51.500;7.440;2023-02-01T08:04:10;8.20;99.90
2977;DHT22;1498;51.500;7.440;2023-02-01T08:06:36;8.20;99.90
2977;DHT22;1498;51.500;7.440;2023-02-01T08:09:03;8.20;99.90
2977;DHT22;1498;51.500;7.440;2023-02-01T08:11:29;8.20;99.90
2977;DHT22;1498;51.500;7.440;2023-02-01T08:13:55;8.10;99.90
2977;DHT22;1498;51.500;7.440;2023-02-01T08:16:21;8.00;99.90
2977;DHT22;1498;51.500;7.440;2023-02-01T08:18:47;8.00;99.90
2977;DHT22;1498;51.500;7.440;2023-02-01T08:21:18;8.00;99.90
2977;DHT22;1498;51.500;7.440;2023-02-01T08:23:44;8.00;99.90
2977;DHT22;1498;51.500;7.440;2023-02-01T08:26:12;8.00;99.90
2977;DHT22;1498;51.500;7.440;2023-02-01T08:28:41;8.00;99.90
2977;DHT22;1498;51.500;7.440;2023-02-01T08:31:08;8.00;99.90
2977;DHT22;1498;51.500;7.440;2023-02-01T08:33:35;7.90;99.90
2977;DHT22;1498;51.500;7.440;2023-02-01T08:36:04;7.80;99.90
2977;DHT22;1498;51.500;7.440;2023-02-01T08:38:30;7.80;99.90
2977;DHT22;1498;51.500;7.440;2023-02-01T08:40:56;7.70;99.90
2977;DHT22;1498;51.500;7.440;2023-02-01T08:43:21;7.90;99.90
2977;DHT22;1498;51.500;7.440;2023-02-01T08:45:47;7.80;99.90
2977;DHT22;1498;51.500;7.440;2023-02-01T08:48:13;7.80;99.90
2977;DHT22;1498;51.500;7.440;2023-02-01T08:50:38;7.80;99.90
2977;DHT22;1498;51.500;7.440;2023-02-01T08:53:04;7.90;99.90
2977;DHT22;1498;51.500;7.440;2023-02-01T08:55:30;8.00;99.90
2977;DHT22;1498;51.500;7.440;2023-02-01T08:57:56;8.00;99.90
2977;DHT22;1498;51.500;7.440;2023-02-01T09:00:21;8.00;99.90
2977;DHT22;1498;51.500;7.440;2023-02-01T09:02:47;8.10;99.90
2977;DHT22;1498;51.500;7.440;2023-02-01T09:05:13;7.90;99.90
2977;DHT22;1498;51.500;7.440;2023-02-01T09:07:39;8.10;99.90
2977;DHT22;1498;51.500;7.440;2023-02-01T09:10:05;8.10;99.90
2977;DHT22;1498;51.500;7.440;2023-02-01T09:12:32;8.10;99.90
2977;DHT22;1498;51.500;7.440;2023-02-01T09:14:58;8.10;99.90
2977;DHT22;1498;51.500;7.440;2023-02-01T09:17:26;8.10;99.90
2977;DHT22;1498;51.500;7.440;2023-02-01T09:19:51;8.10;99.90
2977;DHT22;1498;51.500;7.440;2023-02-01T09:22:17;8.10;99.90
2977;DHT22;1498;51.500;7.440;2023-02-01T09:24:42;8.00;99.90
2977;DHT22;1498;51.500;7.440;2023-02-01T09:27:08;8.00;99.90
2977;DHT22;1498;51.500;7.440;2023-02-01T09:29:34;8.10;99.90
2977;DHT22;1498;51.500;7.440;2023-02-01T09:31:59;8.00;99.90
2977;DHT22;1498;51.500;7.440;2023-02-01T09:34:25;8.10;99.90
2977;DHT22;1498;51.500;7.440;2023-02-01T09:36:51;8.00;99.90
2977;DHT22;1498;51.500;7.440;2023-02-01T09:39:17;8.10;99.90
2977;DHT22;1498;51.500;7.440;2023-02-01T09:41:57;8.00;99.90
2977;DHT22;1498;51.500;7.440;2023-02-01T09:46:58;8.00;99.90
2977;DHT22;1498;51.500;7.440;2023-02-01T09:49:30;8.00;99.90
2977;DHT22;1498;51.500;7.440;2023-02-01T09:51:57;8.00;99.90
2977;DHT22;1498;51.500;7.440;2023-02-01T09:54:26;8.00;99.90
2977;DHT22;1498;51.500;7.440;2023-02-01T09:57:01;8.00;99.90
2977;DHT22;1498;51.500;7.440;2023-02-01T09:59:54;8.00;99.90
2977;DHT22;1498;51.500;7.440;2023-02-01T10:02:25;8.10;99.90
2977;DHT22;1498;51.500;7.440;2023-02-01T10:04:54;8.00;99.90
2977;DHT22;1498;51.500;7.440;2023-02-01T10:07:43;8.10;99.90
2977;DHT22;1498;51.500;7.440;2023-02-01T10:10:35;8.00;99.90
2977;DHT22;1498;51.500;7.440;2023-02-01T10:16:10;8.00;99.90
2977;DHT22;1498;51.500;7.440;2023-02-01T10:27:13;7.90;99.90
2977;DHT22;1498;51.500;7.440;2023-02-01T10:29:41;8.00;99.90
2977;DHT22;1498;51.500;7.440;2023-02-01T10:32:20;8.00;99.90
2977;DHT22;1498;51.500;7.440;2023-02-01T10:34:51;8.10;99.90
2977;DHT22;1498;51.500;7.440;2023-02-01T10:37:30;8.10;99.90
2977;DHT22;1498;51.500;7.440;2023-02-01T10:40:00;8.20;99.90
2977;DHT22;1498;51.500;7.440;2023-02-01T10:42:28;8.10;99.90
2977;DHT22;1498;51.500;7.440;2023-02-01T10:44:57;8.10;99.90
2977;DHT22;1498;51.500;7.440;2023-02-01T10:47:23;8.00;99.90
2977;DHT22;1498;51.500;7.440;2023-02-01T10:49:54;8.10;99.90
2977;DHT22;1498;51.500;7.440;2023-02-01T10:52:42;8.00;99.90
2977;DHT22;1498;51.500;7.440;2023-02-01T10:55:54;8.10;99.90
2977;DHT22;1498;51.500;7.440;2023-02-01T10:58:29;8.20;99.90
2977;DHT22;1498;51.500;7.440;2023-02-01T11:01:01;8.30;99.90
2977;DHT22;1498;51.500;7.440;2023-02-01T11:06:24;8.10;99.90
2977;DHT22;1498;51.500;7.440;2023-02-01T11:08:52;8.00;99.90
2977;DHT22;1498;51.500;7.440;2023-02-01T11:11:19;8.10;99.90
2977;DHT22;1498;51.500;7.440;2023-02-01T11:13:56;8.10;99.90
2977;DHT22;1498;51.500;7.440;2023-02-01T11:16:38;8.10;99.90
2977;DHT22;1498;51.500;7.440;2023-02-01T11:19:04;8.00;99.90
2977;DHT22;1498;51.500;7.440;2023-02-01T11:21:31;8.00;99.90
2977;DHT22;1498;51.500;7.440;2023-02-01T11:24:02;8.00;99.90
2977;DHT22;1498;51.500;7.440;2023-02-01T11:26:29;7.80;99.90
2977;DHT22;1498;51.500;7.440;2023-02-01T11:29:03;7.90;99.90
2977;DHT22;1498;51.500;7.440;2023-02-01T11:31:30;8.00;99.90
2977;DHT22;1498;51.500;7.440;2023-02-01T11:34:05;8.00;99.90
2977;DHT22;1498;51.500;7.440;2023-02-01T11:36:33;8.00;99.90
2977;DHT22;1498;51.500;7.440;2023-02-01T11:39:09;8.20;99.90
2977;DHT22;1498;51.500;7.440;2023-02-01T11:41:42;8.20;99.90
2977;DHT22;1498;51.500;7.440;2023-02-01T11:44:35;8.20;99.90
2977;DHT22;1498;51.500;7.440;2023-02-01T11:47:28;8.20;99.90
2977;DHT22;1498;51.500;7.440;2023-02-01T11:49:59;8.20;99.90
2977;DHT22;1498;51.500;7.440;2023-02-01T11:52:41;8.30;99.90
2977;DHT22;1498;51.500;7.440;2023-02-01T12:01:01;8.30;99.90
2977;DHT22;1498;51.500;7.440;2023-02-01T12:06:53;8.40;99.90
2977;DHT22;1498;51.500;7.440;2023-02-01T12:09:51;8.40;99.90
2977;DHT22;1498;51.500;7.440;2023-02-01T12:21:37;7.90;99.90
2977;DHT22;1498;51.500;7.440;2023-02-01T12:26:47;8.00;99.90
2977;DHT22;1498;51.500;7.440;2023-02-01T12:32:22;8.00;99.90
2977;DHT22;1498;51.500;7.440;2023-02-01T12:40:31;8.10;99.90
2977;DHT22;1498;51.500;7.440;2023-02-01T12:43:11;8.10;99.90
2977;DHT22;1498;51.500;7.440;2023-02-01T12:45:43;8.00;99.90
2977;DHT22;1498;51.500;7.440;2023-02-01T12:51:13;8.00;99.90
2977;DHT22;1498;51.500;7.440;2023-02-01T12:53:55;8.00;99.90
2977;DHT22;1498;51.500;7.440;2023-02-01T12:56:30;7.90;99.90
2977;DHT22;1498;51.500;7.440;2023-02-01T12:58:59;8.00;99.90
2977;DHT22;1498;51.500;7.440;2023-02-01T13:04:25;7.90;99.90
2977;DHT22;1498;51.500;7.440;2023-02-01T13:06:57;8.10;99.90
2977;DHT22;1498;51.500;7.440;2023-02-01T13:09:51;8.00;99.90
2977;DHT22;1498;51.500;7.440;2023-02-01T13:12:37;8.10;99.90
2977;DHT22;1498;51.500;7.440;2023-02-01T13:15:13;8.20;99.90
2977;DHT22;1498;51.500;7.440;2023-02-01T13:17:42;8.00;99.90
2977;DHT22;1498;51.500;7.440;2023-02-01T13:23:03;8.00;99.90
2977;DHT22;1498;51.500;7.440;2023-02-01T13:25:50;8.00;99.90
2977;DHT22;1498;51.500;7.440;2023-02-01T13:28:26;8.10;99.90
2977;DHT22;1498;51.500;7.440;2023-02-01T13:36:22;8.10;99.90
2977;DHT22;1498;51.500;7.440;2023-02-01T13:39:25;8.10;99.90
2977;DHT22;1498;51.500;7.440;2023-02-01T13:41:57;8.20;99.90
2977;DHT22;1498;51.500;7.440;2023-02-01T13:44:45;8.20;99.90
2977;DHT22;1498;51.500;7.440;2023-02-01T13:47:25;8.20;99.90
2977;DHT22;1498;51.500;7.440;2023-02-01T13:49:55;8.20;99.90
2977;DHT22;1498;51.500;7.440;2023-02-01T13:52:29;8.20;99.90
2977;DHT22;1498;51.500;7.440;2023-02-01T13:57:48;8.10;99.90
2977;DHT22;1498;51.500;7.440;2023-02-01T14:00:37;8.30;99.90
2977;DHT22;1498;51.500;7.440;2023-02-01T14:10:57;8.30;99.90
2977;DHT22;1498;51.500;7.440;2023-02-01T14:23:54;8.50;99.90
2977;DHT22;1498;51.500;7.440;2023-02-01T14:34:19;8.40;99.90
2977;DHT22;1498;51.500;7.440;2023-02-01T14:37:03;8.50;99.90
2977;DHT22;1498;51.500;7.440;2023-02-01T14:42:00;8.40;99.90
2977;DHT22;1498;51.500;7.440;2023-02-01T14:44:29;8.50;99.90
2977;DHT22;1498;51.500;7.440;2023-02-01T14:50:25;8.40;99.90
2977;DHT22;1498;51.500;7.440;2023-02-01T14:52:35;8.50;99.90
2977;DHT22;1498;51.500;7.440;2023-02-01T14:55:11;8.60;99.90
2977;DHT22;1498;51.500;7.440;2023-02-01T14:57:40;8.40;99.90
2977;DHT22;1498;51.500;7.440;2023-02-01T15:00:23;8.40;99.90
2977;DHT22;1498;51.500;7.440;2023-02-01T15:02:51;8.40;99.90
2977;DHT22;1498;51.500;7.440;2023-02-01T15:05:30;8.60;99.90
2977;DHT22;1498;51.500;7.440;2023-02-01T15:08:15;8.60;99.90
2977;DHT22;1498;51.500;7.440;2023-02-01T15:10:45;8.60;99.90
2977;DHT22;1498;51.500;7.440;2023-02-01T15:13:23;8.60;99.90
2977;DHT22;1498;51.500;7.440;2023-02-01T15:16:12;8.70;99.90
2977;DHT22;1498;51.500;7.440;2023-02-01T15:18:38;8.70;99.90
2977;DHT22;1498;51.500;7.440;2023-02-01T15:21:05;8.70;99.90
2977;DHT22;1498;51.500;7.440;2023-02-01T15:23:32;8.80;99.90
2977;DHT22;1498;51.500;7.440;2023-02-01T15:25:58;8.80;99.90
2977;DHT22;1498;51.500;7.440;2023-02-01T15:28:25;8.90;99.90
2977;DHT22;1498;51.500;7.440;2023-02-01T15:30:59;8.80;99.90
2977;DHT22;1498;51.500;7.440;2023-02-01T15:33:27;8.80;99.90
2977;DHT22;1498;51.500;7.440;2023-02-01T15:38:38;8.60;99.90
2977;DHT22;1498;51.500;7.440;2023-02-01T15:46:09;8.60;99.90
2977;DHT22;1498;51.500;7.440;2023-02-01T15:48:43;8.60;99.90
2977;DHT22;1498;51.500;7.440;2023-02-01T15:51:21;8.70;99.90
2977;DHT22;1498;51.500;7.440;2023-02-01T15:53:59;8.80;99.90
2977;DHT22;1498;51.500;7.440;2023-02-01T15:56:33;8.70;99.90
2977;DHT22;1498;51.500;7.440;2023-02-01T15:59:01;8.80;99.90
2977;DHT22;1498;51.500;7.440;2023-02-01T16:01:27;8.80;99.90
2977;DHT22;1498;51.500;7.440;2023-02-01T16:04:27;8.70;99.90
2977;DHT22;1498;51.500;7.440;2023-02-01T16:07:02;8.80;99.90
2977;DHT22;1498;51.500;7.440;2023-02-01T16:09:52;8.90;99.90
2977;DHT22;1498;51.500;7.440;2023-02-01T16:15:07;8.90;99.90
2977;DHT22;1498;51.500;7.440;2023-02-01T16:17:32;9.00;99.90
2977;DHT22;1498;51.500;7.440;2023-02-01T16:19:58;8.70;99.90
2977;DHT22;1498;51.500;7.440;2023-02-01T16:22:24;8.70;99.90
2977;DHT22;1498;51.500;7.440;2023-02-01T16:24:50;8.70;99.90
2977;DHT22;1498;51.500;7.440;2023-02-01T16:27:16;8.80;99.90
2977;DHT22;1498;51.500;7.440;2023-02-01T16:29:41;8.70;99.90
2977;DHT22;1498;51.500;7.440;2023-02-01T16:32:17;8.80;99.90
2977;DHT22;1498;51.500;7.440;2023-02-01T16:34:44;8.80;99.90
2977;DHT22;1498;51.500;7.440;2023-02-01T16:37:13;8.80;99.90
2977;DHT22;1498;51.500;7.440;2023-02-01T16:39:38;8.80;99.90
2977;DHT22;1498;51.500;7.440;2023-02-01T16:42:11;8.80;99.90
2977;DHT22;1498;51.500;7.440;2023-02-01T16:44:37;8.80;99.90
2977;DHT22;1498;51.500;7.440;2023-02-01T16:47:12;8.90;99.90
2977;DHT22;1498;51.500;7.440;2023-02-01T16:49:40;9.00;99.90
2977;DHT22;1498;51.500;7.440;2023-02-01T16:52:16;9.00;99.90
2977;DHT22;1498;51.500;7.440;2023-02-01T16:54:42;8.90;99.90
2977;DHT22;1498;51.500;7.440;2023-02-01T16:57:12;9.00;99.90
2977;DHT22;1498;51.500;7.440;2023-02-01T16:59:39;9.00;99.90
2977;DHT22;1498;51.500;7.440;2023-02-01T17:02:04;9.00;99.90
2977;DHT22;1498;51.500;7.440;2023-02-01T17:04:30;8.80;99.90
2977;DHT22;1498;51.500;7.440;2023-02-01T17:06:55;8.80;99.90
2977;DHT22;1498;51.500;7.440;2023-02-01T17:09:21;8.60;99.90
2977;DHT22;1498;51.500;7.440;2023-02-01T17:11:48;8.50;99.90
2977;DHT22;1498;51.500;7.440;2023-02-01T17:14:18;8.50;99.90
2977;DHT22;1498;51.500;7.440;2023-02-01T17:16:46;8.40;99.90
2977;DHT22;1498;51.500;7.440;2023-02-01T17:19:21;8.30;99.90
2977;DHT22;1498;51.500;7.440;2023-02-01T17:21:52;8.30;99.90
2977;DHT22;1498;51.500;7.440;2023-02-01T17:24:27;8.30;99.90
2977;DHT22;1498;51.500;7.440;2023-02-01T17:26:53;8.20;99.90
2977;DHT22;1498;51.500;7.440;2023-02-01T17:29:19;8.30;99.90
2977;DHT22;1498;51.500;7.440;2023-02-01T17:31:47;8.30;99.90
2977;DHT22;1498;51.500;7.440;2023-02-01T17:34:14;8.20;99.90
2977;DHT22;1498;51.500;7.440;2023-02-01T17:36:42;8.20;99.90
2977;DHT22;1498;51.500;7.440;2023-02-01T17:39:08;8.10;99.90
2977;DHT22;1498;51.500;7.440;2023-02-01T17:41:35;8.00;99.90
2977;DHT22;1498;51.500;7.440;2023-02-01T17:44:01;8.00;99.90
2977;DHT22;1498;51.500;7.440;2023-02-01T17:46:27;8.00;99.90
2977;DHT22;1498;51.500;7.440;2023-02-01T17:48:53;8.00;99.90
2977;DHT22;1498;51.500;7.440;2023-02-01T17:51:24;7.90;99.90
2977;DHT22;1498;51.500;7.440;2023-02-01T17:53:51;7.90;99.90
2977;DHT22;1498;51.500;7.440;2023-02-01T17:56:20;7.90;99.90
2977;DHT22;1498;51.500;7.440;2023-02-01T17:58:46;7.90;99.90
2977;DHT22;1498;51.500;7.440;2023-02-01T18:01:19;7.80;99.90
2977;DHT22;1498;51.500;7.440;2023-02-01T18:03:44;7.80;99.90
2977;DHT22;1498;51.500;7.440;2023-02-01T18:06:14;7.90;99.90
2977;DHT22;1498;51.500;7.440;2023-02-01T18:08:40;7.90;99.90
2977;DHT22;1498;51.500;7.440;2023-02-01T18:11:11;7.90;99.90
2977;DHT22;1498;51.500;7.440;2023-02-01T18:13:37;8.00;99.90
2977;DHT22;1498;51.500;7.440;2023-02-01T18:16:03;7.90;99.90
2977;DHT22;1498;51.500;7.440;2023-02-01T18:18:29;7.90;99.90
2977;DHT22;1498;51.500;7.440;2023-02-01T18:20:58;7.90;99.90
2977;DHT22;1498;51.500;7.440;2023-02-01T18:23:23;7.90;99.90
2977;DHT22;1498;51.500;7.440;2023-02-01T18:25:50;7.90;99.90
2977;DHT22;1498;51.500;7.440;2023-02-01T18:28:17;8.00;99.90
2977;DHT22;1498;51.500;7.440;2023-02-01T18:30:45;8.00;99.90
2977;DHT22;1498;51.500;7.440;2023-02-01T18:33:13;8.00;99.90
2977;DHT22;1498;51.500;7.440;2023-02-01T18:35:40;7.80;99.90
2977;DHT22;1498;51.500;7.440;2023-02-01T18:38:06;7.80;99.90
2977;DHT22;1498;51.500;7.440;2023-02-01T18:40:42;7.80;99.90
2977;DHT22;1498;51.500;7.440;2023-02-01T18:43:14;7.80;99.90
2977;DHT22;1498;51.500;7.440;2023-02-01T18:45:42;7.80;99.90
2977;DHT22;1498;51.500;7.440;2023-02-01T18:48:10;7.80;99.90
2977;DHT22;1498;51.500;7.440;2023-02-01T18:50:38;7.70;99.90
2977;DHT22;1498;51.500;7.440;2023-02-01T18:53:06;7.70;99.90
2977;DHT22;1498;51.500;7.440;2023-02-01T18:55:32;7.60;99.90
2977;DHT22;1498;51.500;7.440;2023-02-01T18:57:59;7.70;99.90
2977;DHT22;1498;51.500;7.440;2023-02-01T19:00:26;7.70;99.90
2977;DHT22;1498;51.500;7.440;2023-02-01T19:02:52;7.70;99.90
2977;DHT22;1498;51.500;7.440;2023-02-01T19:05:18;7.70;99.90
2977;DHT22;1498;51.500;7.440;2023-02-01T19:07:44;7.70;99.90
2977;DHT22;1498;51.500;7.440;2023-02-01T19:10:13;7.60;99.90
2977;DHT22;1498;51.500;7.440;2023-02-01T19:12:40;7.60;99.90
2977;DHT22;1498;51.500;7.440;2023-02-01T19:15:07;7.60;99.90
2977;DHT22;1498;51.500;7.440;2023-02-01T19:17:33;7.60;99.90
2977;DHT22;1498;51.500;7.440;2023-02-01T19:19:59;7.70;99.90
2977;DHT22;1498;51.500;7.440;2023-02-01T19:22:25;7.60;99.90
2977;DHT22;1498;51.500;7.440;2023-02-01T19:24:51;7.60;99.90
2977;DHT22;1498;51.500;7.440;2023-02-01T19:27:17;7.60;99.90
2977;DHT22;1498;51.500;7.440;2023-02-01T19:29:42;7.60;99.90
2977;DHT22;1498;51.500;7.440;2023-02-01T19:32:10;7.60;99.90
2977;DHT22;1498;51.500;7.440;2023-02-01T19:34:36;7.50;99.90
2977;DHT22;1498;51.500;7.440;2023-02-01T19:37:04;7.60;99.90
2977;DHT22;1498;51.500;7.440;2023-02-01T19:39:30;7.60;99.90
2977;DHT22;1498;51.500;7.440;2023-02-01T19:41:56;7.60;99.90
2977;DHT22;1498;51.500;7.440;2023-02-01T19:44:25;7.70;99.90
2977;DHT22;1498;51.500;7.440;2023-02-01T19:46:54;7.60;99.90
2977;DHT22;1498;51.500;7.440;2023-02-01T19:49:20;7.70;99.90
2977;DHT22;1498;51.500;7.440;2023-02-01T19:51:46;7.60;99.90
2977;DHT22;1498;51.500;7.440;2023-02-01T19:54:13;7.70;99.90
2977;DHT22;1498;51.500;7.440;2023-02-01T19:56:40;7.70;99.90
2977;DHT22;1498;51.500;7.440;2023-02-01T19:59:06;7.70;99.90
2977;DHT22;1498;51.500;7.440;2023-02-01T20:01:33;7.60;99.90
2977;DHT22;1498;51.500;7.440;2023-02-01T20:03:59;7.70;99.90
2977;DHT22;1498;51.500;7.440;2023-02-01T20:06:33;7.70;99.90
2977;DHT22;1498;51.500;7.440;2023-02-01T20:08:59;7.70;99.90
2977;DHT22;1498;51.500;7.440;2023-02-01T20:11:25;7.70;99.90
2977;DHT22;1498;51.500;7.440;2023-02-01T20:13:54;7.70;99.90
2977;DHT22;1498;51.500;7.440;2023-02-01T20:16:21;7.60;99.90
2977;DHT22;1498;51.500;7.440;2023-02-01T20:18:47;7.70;99.90
2977;DHT22;1498;51.500;7.440;2023-02-01T20:21:13;7.80;99.90
2977;DHT22;1498;51.500;7.440;2023-02-01T20:23:39;7.80;99.90
2977;DHT22;1498;51.500;7.440;2023-02-01T20:26:06;7.80;99.90
2977;DHT22;1498;51.500;7.440;2023-02-01T20:28:32;7.80;99.90
2977;DHT22;1498;51.500;7.440;2023-02-01T20:30:59;7.80;99.90
2977;DHT22;1498;51.500;7.440;2023-02-01T20:33:24;7.80;99.90
2977;DHT22;1498;51.500;7.440;2023-02-01T20:35:52;7.70;99.90